createdAt,value
2023-04-17T00:00:28.949Z,69.73
2023-04-17T00:03:58.802Z,68.98
2023-04-17T00:07:13.427Z,68.65
2023-04-17T00:10:38.150Z,68.62
2023-04-17T00:14:07.046Z,69.13
2023-04-17T00:17:24.352Z,69.52
2023-04-17T00:20:41.450Z,69.45
2023-04-17T00:24:06.192Z,69.07
2023-04-17T00:27:23.582Z,69.48
2023-04-17T00:30:58.994Z,69.49
2023-04-17T00:34:33.197Z,69.69
2023-04-17T00:38:09.324Z,70.48
2023-04-17T00:41:45.112Z,69.86
2023-04-17T00:45:02.404Z,70.01
2023-04-17T00:48:29.243Z,70.73
2023-04-17T00:52:05.844Z,70.73
2023-04-17T00:55:44.164Z,70.94
2023-04-17T00:59:00.929Z,70.44
2023-04-17T01:02:28.048Z,70.57
2023-04-17T01:06:08.770Z,71.08
2023-04-17T01:09:26.298Z,70.30
2023-04-17T01:12:46.807Z,71.03
2023-04-17T01:16:22.332Z,70.64
2023-04-17T01:19:42.149Z,71.35
2023-04-17T01:23:20.019Z,72.05
2023-04-17T01:26:35.465Z,72.62
2023-04-17T01:30:01.781Z,73.22
2023-04-17T01:33:31.637Z,73.60
2023-04-17T01:36:46.929Z,72.64
2023-04-17T01:40:28.511Z,72.89
2023-04-17T01:43:55.586Z,73.20
2023-04-17T01:47:32.922Z,73.46
2023-04-17T01:51:00.824Z,73.06
2023-04-17T01:54:21.729Z,73.60
2023-04-17T01:57:39.231Z,73.28
2023-04-17T02:00:56.024Z,73.50
2023-04-17T02:04:25.747Z,73.15
2023-04-17T02:08:06.705Z,73.04
2023-04-17T02:11:38.074Z,72.37
2023-04-17T02:15:19.409Z,72.38
2023-04-17T02:18:43.998Z,72.47
2023-04-17T02:22:28.321Z,71.26
2023-04-17T02:25:47.571Z,71.72
2023-04-17T02:29:14.615Z,70.48
2023-04-17T02:32:56.347Z,73.37
2023-04-17T02:36:22.710Z,76.58
2023-04-17T02:39:50.306Z,75.86
2023-04-17T02:43:07.318Z,77.90
2023-04-17T02:46:34.365Z,77.87
2023-04-17T02:49:55.703Z,76.58
2023-04-17T02:53:23.240Z,77.64
2023-04-17T02:56:53.372Z,78.81
2023-04-17T03:00:30.268Z,78.37
2023-04-17T03:04:04.377Z,78.86
2023-04-17T03:07:46.389Z,76.88
2023-04-17T03:11:06.151Z,77.93
2023-04-17T03:14:24.161Z,75.38
2023-04-17T03:17:41.265Z,74.09
2023-04-17T03:21:12.067Z,73.28
2023-04-17T03:24:39.678Z,73.62
2023-04-17T03:28:14.160Z,74.46
2023-04-17T03:31:48.196Z,72.15
2023-04-17T03:35:20.192Z,72.08
2023-04-17T03:38:48.843Z,71.10
2023-04-17T03:42:16.474Z,71.82
2023-04-17T03:45:39.732Z,72.74
2023-04-17T03:49:07.255Z,71.84
2023-04-17T03:52:24.158Z,72.19
2023-04-17T03:55:42.458Z,71.88
2023-04-17T03:59:07.105Z,71.18
2023-04-17T04:02:24.271Z,70.29
2023-04-17T04:05:50.776Z,70.48
2023-04-17T04:09:31.063Z,70.99
2023-04-17T04:13:02.470Z,69.63
2023-04-17T04:16:33.662Z,69.44
2023-04-17T04:20:00.535Z,69.57
2023-04-17T04:23:33.800Z,68.75
2023-04-17T04:27:05.564Z,68.32
2023-04-17T04:30:51.209Z,67.84
2023-04-17T04:34:17.019Z,68.51
2023-04-17T04:37:46.382Z,68.26
2023-04-17T04:41:12.576Z,67.58
2023-04-17T04:44:54.550Z,68.79
2023-04-17T04:48:36.718Z,69.90
2023-04-17T04:52:04.434Z,70.30
2023-04-17T04:55:38.165Z,68.12
2023-04-17T04:59:00.304Z,68.03
2023-04-17T05:02:26.828Z,67.75
2023-04-17T05:05:58.146Z,68.40
2023-04-17T05:09:18.732Z,69.21
2023-04-17T05:12:54.075Z,69.37
2023-04-17T05:16:26.152Z,69.13
2023-04-17T05:19:55.033Z,68.02
2023-04-17T05:23:28.733Z,67.44
2023-04-17T05:26:58.287Z,66.23
2023-04-17T05:30:15.847Z,65.93
2023-04-17T05:33:47.228Z,67.22
2023-04-17T05:37:21.128Z,66.34
2023-04-17T05:41:03.453Z,65.18
2023-04-17T05:44:22.898Z,64.32
2023-04-17T05:47:49.777Z,65.01
2023-04-17T05:51:17.582Z,64.13
2023-04-17T05:54:50.362Z,63.64
2023-04-17T05:58:20.429Z,64.36
2023-04-17T06:01:36.166Z,63.41
2023-04-17T06:05:20.796Z,64.41
2023-04-17T06:08:35.397Z,63.30
2023-04-17T06:11:54.527Z,63.26
2023-04-17T06:15:25.043Z,62.98
2023-04-17T06:18:54.632Z,63.05
2023-04-17T06:22:14.783Z,62.66
2023-04-17T06:25:32.558Z,62.55
2023-04-17T06:29:07.410Z,61.94
2023-04-17T06:32:24.607Z,61.52
2023-04-17T06:36:00.094Z,61.17
2023-04-17T06:39:27.569Z,60.89
2023-04-17T06:42:57.700Z,61.18
2023-04-17T06:46:23.002Z,59.85
2023-04-17T06:49:28.320Z,59.17
2023-04-17T06:52:41.744Z,59.52
2023-04-17T06:55:45.598Z,58.94
2023-04-17T06:58:48.673Z,58.82
2023-04-17T07:01:53.693Z,57.08
2023-04-17T07:04:59.212Z,57.71
2023-04-17T07:08:04.182Z,56.29
2023-04-17T07:11:27.373Z,54.18
2023-04-17T07:14:34.034Z,56.21
2023-04-17T07:17:38.834Z,54.18
2023-04-17T07:20:44.164Z,53.83
2023-04-17T07:23:48.873Z,53.96
2023-04-17T07:27:12.413Z,54.25
2023-04-17T07:30:19.627Z,53.29
2023-04-17T07:33:23.216Z,52.58
2023-04-17T07:36:28.875Z,51.34
2023-04-17T07:39:36.024Z,50.70
2023-04-17T07:42:39.191Z,50.54
2023-04-17T07:45:43.389Z,50.54
2023-04-17T07:48:50.484Z,52.90
2023-04-17T07:52:00.260Z,53.17
2023-04-17T07:55:22.844Z,53.04
2023-04-17T07:58:27.562Z,52.57
2023-04-17T08:01:32.450Z,54.43
2023-04-17T08:04:35.851Z,52.07
2023-04-17T08:07:40.427Z,52.38
2023-04-17T08:10:44.263Z,51.58
2023-04-17T08:13:47.238Z,50.75
2023-04-17T08:16:52.309Z,48.63
2023-04-17T08:19:57.746Z,49.02
2023-04-17T08:23:05.094Z,48.76
2023-04-17T08:26:28.790Z,48.26
2023-04-17T08:29:32.102Z,47.91
2023-04-17T08:32:44.870Z,48.05
2023-04-17T08:35:48.314Z,48.03
2023-04-17T08:39:24.169Z,49.13
2023-04-17T08:42:55.710Z,47.54
2023-04-17T08:46:03.704Z,44.47
2023-04-17T08:49:13.798Z,45.98
2023-04-17T08:52:24.705Z,43.50
2023-04-17T08:55:31.694Z,43.77
2023-04-17T08:58:36.050Z,45.01
2023-04-17T09:02:06.885Z,44.83
2023-04-17T09:06:18.958Z,47.14
2023-04-17T09:09:47.168Z,47.17
2023-04-17T09:13:04.079Z,48.00
2023-04-17T09:16:29.665Z,47.99
2023-04-17T09:20:09.265Z,47.30
2023-04-17T09:23:12.192Z,48.37
2023-04-17T09:26:37.405Z,48.76
2023-04-17T09:30:02.882Z,48.57
2023-04-17T09:33:08.049Z,48.94
2023-04-17T09:36:22.341Z,48.25
2023-04-17T09:39:28.137Z,47.39
2023-04-17T09:42:31.571Z,45.01
2023-04-17T09:45:37.110Z,47.01
2023-04-17T09:48:41.439Z,47.47
2023-04-17T09:51:47.006Z,48.77
2023-04-17T09:54:53.932Z,48.44
2023-04-17T09:58:00.336Z,48.13
2023-04-17T10:01:09.344Z,47.44
2023-04-17T10:04:42.307Z,47.88
2023-04-17T10:07:46.260Z,48.36
2023-04-17T10:11:14.333Z,47.31
2023-04-17T10:14:30.461Z,48.94
2023-04-17T10:17:56.734Z,49.85
2023-04-17T10:21:22.314Z,49.11
2023-04-17T10:24:32.209Z,49.26
2023-04-17T10:28:13.791Z,48.57
2023-04-17T10:32:11.367Z,49.15
2023-04-17T10:35:17.375Z,48.18
2023-04-17T10:38:33.317Z,46.68
2023-04-17T10:42:08.751Z,48.27
2023-04-17T10:45:19.583Z,46.86
2023-04-17T10:48:36.548Z,46.71
2023-04-17T10:51:44.223Z,46.53
2023-04-17T10:55:16.074Z,47.84
2023-04-17T10:58:22.269Z,48.17
2023-04-17T11:01:49.204Z,47.27
2023-04-17T11:05:07.225Z,46.28
2023-04-17T11:11:44.523Z,46.20
2023-04-17T11:15:06.566Z,46.12
2023-04-17T11:18:53.649Z,47.15
2023-04-17T11:22:01.645Z,48.25
2023-04-17T11:25:28.661Z,44.49
2023-04-17T11:28:32.406Z,46.66
2023-04-17T11:32:15.259Z,48.24
2023-04-17T11:35:48.978Z,46.10
2023-04-17T11:39:17.023Z,47.93
2023-04-17T11:42:32.200Z,47.01
2023-04-17T11:45:41.627Z,46.81
2023-04-17T11:49:05.163Z,45.04
2023-04-17T11:52:18.008Z,43.86
2023-04-17T11:55:30.445Z,47.10
2023-04-17T11:59:08.499Z,46.17
2023-04-17T12:03:00.110Z,44.48
2023-04-17T12:06:18.494Z,46.03
2023-04-17T12:09:37.369Z,47.29
2023-04-17T12:13:17.604Z,49.16
2023-04-17T12:16:55.137Z,48.39
2023-04-17T12:20:39.280Z,49.64
2023-04-17T12:24:10.190Z,50.43
2023-04-17T12:34:49.451Z,56.18
2023-04-17T12:38:37.684Z,59.20
2023-04-17T12:42:21.775Z,58.27
2023-04-17T12:45:58.650Z,58.71
2023-04-17T12:49:21.011Z,56.03
2023-04-17T12:52:44.606Z,53.55
2023-04-17T12:56:27.010Z,54.46
2023-04-17T12:59:56.855Z,54.63
2023-04-17T13:03:25.436Z,53.47
2023-04-17T13:07:15.523Z,52.37
2023-04-17T13:10:42.858Z,52.51
2023-04-17T13:14:20.818Z,54.11
2023-04-17T13:17:39.748Z,55.22
2023-04-17T13:21:14.243Z,55.69
2023-04-17T13:24:48.368Z,55.64
2023-04-17T13:27:52.259Z,55.03
2023-04-17T13:30:55.446Z,54.43
2023-04-17T13:38:34.868Z,53.54
2023-04-17T13:41:58.626Z,53.10
2023-04-17T13:45:27.902Z,53.52
2023-04-17T13:49:00.866Z,53.15
2023-04-17T13:52:44.207Z,54.25
2023-04-17T13:55:48.836Z,52.33
2023-04-17T13:58:53.506Z,52.13
2023-04-17T14:02:06.834Z,51.97
2023-04-17T14:05:32.178Z,52.21
2023-04-17T14:08:56.315Z,51.54
2023-04-17T14:13:02.325Z,52.50
2023-04-17T14:16:37.938Z,53.61
2023-04-17T14:19:44.917Z,53.77
2023-04-17T14:23:05.427Z,53.08
2023-04-17T14:26:12.426Z,52.57
2023-04-17T14:29:16.084Z,52.74
2023-04-17T14:32:55.128Z,53.48
2023-04-17T14:36:06.212Z,52.57
2023-04-17T14:39:23.793Z,51.64
2023-04-17T14:42:54.619Z,52.43
2023-04-17T14:46:00.393Z,52.38
2023-04-17T14:49:24.332Z,51.51
2023-04-17T14:52:27.894Z,52.36
2023-04-17T14:56:11.963Z,51.52
2023-04-17T14:59:15.206Z,52.36
2023-04-17T15:02:58.916Z,52.64
2023-04-17T15:06:03.649Z,52.01
2023-04-17T15:09:06.934Z,52.40
2023-04-17T15:12:10.133Z,52.76
2023-04-17T15:15:45.684Z,51.65
2023-04-17T15:19:21.417Z,52.60
2023-04-17T15:22:52.767Z,53.65
2023-04-17T15:25:57.923Z,53.00
2023-04-17T15:29:03.150Z,52.92
2023-04-17T15:32:13.921Z,52.81
2023-04-17T15:35:18.177Z,54.17
2023-04-17T15:38:22.142Z,53.17
2023-04-17T15:41:27.342Z,53.04
2023-04-17T15:44:30.502Z,53.62
2023-04-17T15:47:35.402Z,53.90
2023-04-17T15:50:38.548Z,54.86
2023-04-17T15:53:53.702Z,54.84
2023-04-17T15:56:57.299Z,55.47
2023-04-17T16:00:23.652Z,55.69
2023-04-17T16:03:28.956Z,56.58
2023-04-17T16:06:39.662Z,56.85
2023-04-17T16:09:48.206Z,57.47
2023-04-17T16:12:51.324Z,57.51
2023-04-17T16:15:56.651Z,57.16
2023-04-17T16:19:00.622Z,57.26
2023-04-17T16:22:25.650Z,57.30
2023-04-17T16:25:32.339Z,58.50
2023-04-17T16:28:36.533Z,58.37
2023-04-17T16:31:47.556Z,57.95
2023-04-17T16:39:28.068Z,60.50
2023-04-17T16:42:32.634Z,60.33
2023-04-17T16:45:38.181Z,60.18
2023-04-17T16:48:41.500Z,60.91
2023-04-17T16:51:47.777Z,61.46
2023-04-17T16:54:51.845Z,61.33
2023-04-17T16:57:55.978Z,62.06
2023-04-17T17:01:21.617Z,61.76
2023-04-17T17:04:27.638Z,61.73
2023-04-17T17:07:32.668Z,63.03
2023-04-17T17:10:35.208Z,62.56
2023-04-17T17:13:39.219Z,63.48
2023-04-17T17:16:42.751Z,63.46
2023-04-17T17:19:46.327Z,62.92
2023-04-17T17:22:51.806Z,62.78
2023-04-17T17:25:56.518Z,63.40
2023-04-17T17:29:02.060Z,63.86
2023-04-17T17:32:10.198Z,64.37
2023-04-17T17:35:13.700Z,64.08
2023-04-17T17:38:21.527Z,64.45
2023-04-17T17:41:36.574Z,64.57
2023-04-17T17:44:45.939Z,66.36
2023-04-17T17:47:49.041Z,66.61
2023-04-17T17:51:15.289Z,65.92
2023-04-17T17:54:19.006Z,66.34
2023-04-17T17:57:53.073Z,66.97
2023-04-17T18:01:25.355Z,67.68
2023-04-17T18:04:42.645Z,67.36
2023-04-17T18:07:59.924Z,67.20
2023-04-17T18:11:29.909Z,67.71
2023-04-17T18:15:07.082Z,67.43
2023-04-17T18:18:38.404Z,68.39
2023-04-17T18:22:04.911Z,69.00
2023-04-17T18:25:38.162Z,68.65
2023-04-17T18:29:22.482Z,68.49
2023-04-17T18:32:26.593Z,69.34
2023-04-17T18:35:44.225Z,69.34
2023-04-17T18:39:21.501Z,69.59
2023-04-17T18:42:42.958Z,69.18
2023-04-17T18:46:14.951Z,70.54
2023-04-17T18:49:37.490Z,70.53
2023-04-17T18:52:56.269Z,70.63
2023-04-17T18:56:30.595Z,71.95
2023-04-17T18:59:34.737Z,71.59
2023-04-17T19:03:01.909Z,71.56
2023-04-17T19:06:06.867Z,71.01
2023-04-17T19:09:10.072Z,71.50
2023-04-17T19:12:20.311Z,72.35
2023-04-17T19:19:42.823Z,72.18
2023-04-17T19:23:25.630Z,72.36
2023-04-17T19:26:55.794Z,72.20
2023-04-17T19:30:25.590Z,72.48
2023-04-17T19:33:32.952Z,73.48
2023-04-17T19:36:58.815Z,73.23
2023-04-17T19:40:25.479Z,73.82
2023-04-17T19:43:42.094Z,73.89
2023-04-17T19:47:00.822Z,73.59
2023-04-17T19:50:26.505Z,74.28
2023-04-17T19:53:37.280Z,73.71
2023-04-17T19:56:39.944Z,74.69
2023-04-17T20:00:06.134Z,74.79
2023-04-17T20:03:15.121Z,74.76
2023-04-17T20:06:39.771Z,74.50
2023-04-17T20:09:43.157Z,74.30
2023-04-17T20:13:11.547Z,74.83
2023-04-17T20:16:15.802Z,75.36
2023-04-17T20:19:20.783Z,74.89
2023-04-17T20:22:31.943Z,75.07
2023-04-17T20:25:42.858Z,75.42
2023-04-17T20:29:05.958Z,75.39
2023-04-17T20:32:43.571Z,75.98
2023-04-17T20:36:46.461Z,76.73
2023-04-17T20:40:14.114Z,76.79
2023-04-17T20:44:01.500Z,76.83
2023-04-17T20:47:24.941Z,77.83
2023-04-17T20:51:33.705Z,78.18
2023-04-17T20:54:56.384Z,78.68
2023-04-17T21:02:00.412Z,79.15
2023-04-17T21:05:23.278Z,78.95
2023-04-17T21:08:59.404Z,78.75
2023-04-17T21:12:29.052Z,78.85
2023-04-17T21:16:12.340Z,78.70
2023-04-17T21:19:56.305Z,79.04
2023-04-17T21:23:23.266Z,79.33
2023-04-17T21:26:50.689Z,79.39
2023-04-17T21:30:18.603Z,79.74
2023-04-17T21:33:38.807Z,80.03
2023-04-17T21:36:43.255Z,80.62
2023-04-17T21:40:30.998Z,80.12
2023-04-17T21:43:54.567Z,81.23
2023-04-17T21:47:35.098Z,80.89
2023-04-17T21:50:56.019Z,81.05
2023-04-17T21:54:12.521Z,81.31
2023-04-17T21:57:40.018Z,80.82
2023-04-17T22:01:15.813Z,81.23
2023-04-17T22:04:55.210Z,82.04
2023-04-17T22:08:52.799Z,81.69
2023-04-17T22:12:31.807Z,80.88
2023-04-17T22:15:58.630Z,81.77
2023-04-17T22:19:16.204Z,81.75
2023-04-17T22:22:35.298Z,82.74
2023-04-17T22:26:00.562Z,82.93
2023-04-17T22:29:36.416Z,82.99
2023-04-17T22:33:03.250Z,83.95
2023-04-17T22:36:07.880Z,84.42
2023-04-17T22:39:54.965Z,85.36
2023-04-17T22:43:32.465Z,85.84
2023-04-17T22:47:16.646Z,86.08
2023-04-17T22:50:37.912Z,86.58
2023-04-17T22:53:53.789Z,87.38
2023-04-17T22:57:31.625Z,86.59
2023-04-17T23:00:48.403Z,87.12
2023-04-17T23:04:15.328Z,86.33
2023-04-17T23:07:18.235Z,86.55
2023-04-17T23:11:18.834Z,86.14
2023-04-17T23:14:24.410Z,86.44
2023-04-17T23:17:51.166Z,85.42
2023-04-17T23:21:01.817Z,85.72
2023-04-17T23:24:21.316Z,85.51
2023-04-17T23:28:30.565Z,87.10
2023-04-17T23:31:33.749Z,88.08
2023-04-17T23:35:34.020Z,87.52
2023-04-17T23:39:00.597Z,92.85
2023-04-17T23:42:35.578Z,95.76
2023-04-17T23:49:55.615Z,100.00
2023-04-17T23:53:40.306Z,100.00
2023-04-17T23:57:44.112Z,100.00
